Time;durP1;ratioP1;P1;durP2;ratioP2;P2;SDS_P1;SDS_P2;PMS_P1;PMS_P2;Temp;Humidity;BMP_temperature;BMP_pressure;BME280_temperature;BME280_humidity;BME280_pressure;Samples;Min_cycle;Max_cycle;Signal;HPM_P1;HPM_P2
2021/09/16 00:01:55;;;;;;;18.63;10.85;;;21.90;80.40;;;;;;5001134;28;20483;-50
2021/09/16 00:04:21;;;;;;;16.33;11.18;;;22.00;80.40;;;;;;5052012;28;20027;-49
2021/09/16 00:06:46;;;;;;;21.33;13.10;;;22.00;80.40;;;;;;5017650;28;20044;-50
2021/09/16 00:09:12;;;;;;;11.80;10.60;;;22.00;80.40;;;;;;5071415;28;20029;-50
2021/09/16 00:11:38;;;;;;;23.92;11.88;;;22.00;80.40;;;;;;5072793;28;20077;-50
2021/09/16 00:14:04;;;;;;;20.73;11.85;;;22.00;80.20;;;;;;5031395;28;20544;-50
2021/09/16 00:16:29;;;;;;;13.75;10.18;;;22.10;80.10;;;;;;5040233;28;20496;-50
2021/09/16 00:18:55;;;;;;;15.82;11.05;;;22.10;79.80;;;;;;4959057;28;20064;-50
2021/09/16 00:21:21;;;;;;;15.30;10.45;;;22.20;79.40;;;;;;5030291;28;20378;-50
2021/09/16 00:23:47;;;;;;;14.15;9.90;;;22.20;79.30;;;;;;5037377;28;20033;-50
2021/09/16 00:26:13;;;;;;;14.27;10.02;;;22.20;79.20;;;;;;5036492;28;20504;-50
2021/09/16 00:28:39;;;;;;;15.70;10.57;;;22.30;79.30;;;;;;5026375;28;20037;-50
2021/09/16 00:31:04;;;;;;;11.90;10.38;;;22.30;79.30;;;;;;5016856;28;20037;-49
2021/09/16 00:33:32;;;;;;;15.65;11.63;;;22.30;78.60;;;;;;4954988;28;20046;-50
2021/09/16 00:35:58;;;;;;;17.20;11.93;;;22.00;80.30;;;;;;5034244;28;20065;-49
2021/09/16 00:38:24;;;;;;;14.35;11.00;;;21.80;81.30;;;;;;5039867;28;20115;-50
2021/09/16 00:40:49;;;;;;;14.20;11.30;;;21.80;81.30;;;;;;5040275;28;20032;-48
2021/09/16 00:43:15;;;;;;;13.07;10.25;;;21.70;81.00;;;;;;5038433;28;20025;-48
2021/09/16 00:45:41;;;;;;;15.07;11.30;;;21.80;80.60;;;;;;5058418;28;20465;-48
2021/09/16 00:48:07;;;;;;;12.63;10.38;;;21.50;80.30;;;;;;5044021;28;20037;-48
2021/09/16 00:50:35;;;;;;;12.75;10.80;;;21.50;80.90;;;;;;5043309;28;20032;-49
2021/09/16 00:53:01;;;;;;;11.70;10.20;;;21.40;81.10;;;;;;5047319;28;20104;-48
2021/09/16 00:55:27;;;;;;;15.63;10.38;;;21.50;80.40;;;;;;5053405;28;20132;-49
2021/09/16 00:58:02;;;;;;;12.75;9.98;;;21.20;81.30;;;;;;5040189;28;20063;-49
2021/09/16 01:00:28;;;;;;;13.48;10.65;;;21.40;80.80;;;;;;5046337;28;20029;-49
2021/09/16 01:02:54;;;;;;;13.70;11.10;;;21.30;81.00;;;;;;5039431;28;20025;-49
2021/09/16 01:05:19;;;;;;;10.98;9.85;;;21.20;81.30;;;;;;5043030;28;20447;-49
2021/09/16 01:07:45;;;;;;;18.05;10.18;;;21.30;82.10;;;;;;5019914;28;20037;-49
2021/09/16 01:10:12;;;;;;;12.88;9.93;;;21.50;81.30;;;;;;5035536;28;20091;-49
2021/09/16 01:12:40;;;;;;;13.63;10.07;;;21.60;81.20;;;;;;5025869;28;20040;-48
2021/09/16 01:15:08;;;;;;;11.60;10.40;;;21.60;81.70;;;;;;4999754;28;20040;-48
2021/09/16 01:17:34;;;;;;;13.02;10.63;;;21.70;82.10;;;;;;5019414;28;20037;-49
2021/09/16 01:20:00;;;;;;;12.65;11.20;;;21.70;82.70;;;;;;5054108;28;20099;-49
2021/09/16 01:22:30;;;;;;;13.57;10.90;;;21.70;82.40;;;;;;5046890;28;20060;-48
2021/09/16 01:24:56;;;;;;;15.32;10.90;;;21.70;82.30;;;;;;5018115;28;20046;-48
2021/09/16 01:27:21;;;;;;;10.93;9.82;;;21.70;82.40;;;;;;4947641;28;20093;-49
2021/09/16 01:29:47;;;;;;;14.15;8.80;;;21.80;81.90;;;;;;5012523;28;20453;-49
2021/09/16 01:32:13;;;;;;;10.18;9.05;;;21.80;80.70;;;;;;5020448;28;20036;-49
2021/09/16 01:34:39;;;;;;;15.85;9.77;;;21.90;80.60;;;;;;5016424;28;20029;-49
2021/09/16 01:37:06;;;;;;;12.38;9.60;;;21.90;81.10;;;;;;5016404;28;20476;-49
2021/09/16 01:39:32;;;;;;;14.38;9.68;;;22.00;81.20;;;;;;4980674;28;20417;-49
2021/09/16 01:41:57;;;;;;;9.90;8.90;;;21.90;81.30;;;;;;4996130;28;20037;-49
2021/09/16 01:44:23;;;;;;;14.65;10.70;;;21.90;80.80;;;;;;5012781;28;20470;-50
2021/09/16 01:46:49;;;;;;;13.50;11.05;;;21.80;81.00;;;;;;5012792;28;20029;-50
2021/09/16 01:49:15;;;;;;;13.20;11.18;;;21.80;82.00;;;;;;5011988;28;20113;-50
2021/09/16 01:51:40;;;;;;;13.68;11.18;;;21.80;81.90;;;;;;5007247;28;20037;-48
2021/09/16 01:54:06;;;;;;;16.33;10.85;;;21.70;82.60;;;;;;4951664;28;20136;-48
2021/09/16 01:56:33;;;;;;;15.02;11.38;;;21.60;82.80;;;;;;5023444;28;20053;-48
2021/09/16 01:58:58;;;;;;;13.48;12.13;;;21.30;83.70;;;;;;5032092;28;20095;-48
2021/09/16 02:01:24;;;;;;;17.35;12.57;;;21.30;84.20;;;;;;5012832;28;20531;-48
2021/09/16 02:03:52;;;;;;;18.95;13.30;;;21.20;84.50;;;;;;5044723;28;20078;-48
2021/09/16 02:06:21;;;;;;;17.48;13.82;;;21.00;85.00;;;;;;5009607;28;20048;-48
2021/09/16 02:08:48;;;;;;;17.08;14.45;;;20.90;85.50;;;;;;5038485;28;20041;-49
2021/09/16 02:11:14;;;;;;;17.05;13.57;;;20.90;85.50;;;;;;5023724;28;20044;-48
2021/09/16 02:13:40;;;;;;;16.58;13.48;;;21.10;85.10;;;;;;5031583;28;20493;-49
2021/09/16 02:16:06;;;;;;;14.88;13.38;;;21.20;84.70;;;;;;5010305;28;20037;-49
2021/09/16 02:18:32;;;;;;;16.45;13.00;;;21.30;84.40;;;;;;5023253;28;20538;-49
2021/09/16 02:20:57;;;;;;;20.98;13.50;;;21.30;84.10;;;;;;5051254;28;20113;-49
2021/09/16 02:23:23;;;;;;;20.73;14.50;;;21.40;84.10;;;;;;5040920;28;20053;-50
2021/09/16 02:25:49;;;;;;;19.45;14.20;;;21.40;84.40;;;;;;5031674;28;20394;-49
2021/09/16 02:28:15;;;;;;;20.00;15.25;;;21.30;84.60;;;;;;4998412;28;20033;-49
2021/09/16 02:30:42;;;;;;;17.40;14.68;;;21.30;84.50;;;;;;5064287;28;20094;-49
2021/09/16 02:33:08;;;;;;;17.20;15.25;;;21.30;84.40;;;;;;5064764;28;20033;-49
2021/09/16 02:35:34;;;;;;;16.08;14.02;;;21.40;84.10;;;;;;5053818;28;20029;-50
2021/09/16 02:38:00;;;;;;;18.13;14.43;;;21.40;84.00;;;;;;5054045;28;20037;-49
2021/09/16 02:40:28;;;;;;;16.38;13.70;;;21.30;84.20;;;;;;5053574;28;20072;-49
2021/09/16 02:42:54;;;;;;;15.98;14.38;;;21.20;84.20;;;;;;5053680;28;20440;-49
2021/09/16 02:45:21;;;;;;;17.83;13.85;;;21.20;84.40;;;;;;5053751;28;20063;-49
2021/09/16 02:47:47;;;;;;;20.48;14.85;;;21.20;84.50;;;;;;5053205;28;20452;-49
2021/09/16 02:50:12;;;;;;;22.25;14.52;;;21.20;84.60;;;;;;5035307;28;20115;-49
2021/09/16 02:52:38;;;;;;;21.73;14.68;;;21.00;85.00;;;;;;5053435;28;20079;-49
2021/09/16 02:55:05;;;;;;;18.50;14.63;;;21.10;84.90;;;;;;5053767;28;20064;-49
2021/09/16 02:57:31;;;;;;;19.15;14.02;;;21.20;84.90;;;;;;5052104;28;20032;-49
2021/09/16 02:59:56;;;;;;;17.90;14.02;;;21.30;84.60;;;;;;5018236;28;20040;-49
2021/09/16 03:02:22;;;;;;;19.38;14.18;;;21.10;84.80;;;;;;5052296;28;20029;-50
2021/09/16 03:04:48;;;;;;;19.23;13.68;;;20.80;85.90;;;;;;5023440;28;20036;-49
2021/09/16 03:07:14;;;;;;;16.45;13.13;;;20.30;87.60;;;;;;5053214;28;20048;-49
2021/09/16 03:09:39;;;;;;;14.88;11.70;;;20.20;88.10;;;;;;5052520;28;20091;-49
2021/09/16 03:12:06;;;;;;;16.77;11.80;;;20.10;88.40;;;;;;5018233;28;20033;-49
2021/09/16 03:14:31;;;;;;;14.80;12.00;;;20.10;88.50;;;;;;5061637;28;20024;-49
2021/09/16 03:16:57;;;;;;;15.75;11.38;;;20.10;88.30;;;;;;5017169;28;20036;-49
2021/09/16 03:19:23;;;;;;;15.25;11.35;;;20.10;88.20;;;;;;5020583;28;20036;-49
2021/09/16 03:21:49;;;;;;;12.63;11.00;;;20.10;88.50;;;;;;5072913;28;20047;-49
2021/09/16 03:24:14;;;;;;;11.60;10.40;;;20.10;88.60;;;;;;5073172;28;20111;-49
2021/09/16 03:26:40;;;;;;;15.93;11.07;;;20.10;88.50;;;;;;5073343;28;20024;-49
2021/09/16 03:29:06;;;;;;;16.75;11.50;;;20.20;88.10;;;;;;5073264;28;20453;-48
2021/09/16 03:31:32;;;;;;;15.25;10.23;;;20.30;87.50;;;;;;5073091;28;20020;-48
2021/09/16 03:33:57;;;;;;;14.30;9.60;;;20.40;86.60;;;;;;5021552;28;20040;-49
2021/09/16 03:36:23;;;;;;;15.63;9.90;;;20.70;85.50;;;;;;5073160;28;20029;-49
2021/09/16 03:38:49;;;;;;;13.85;10.43;;;21.00;85.90;;;;;;5073153;28;20102;-49
2021/09/16 03:41:15;;;;;;;14.57;10.95;;;21.20;85.80;;;;;;5072882;28;20063;-50
2021/09/16 03:43:41;;;;;;;18.00;10.80;;;21.30;85.20;;;;;;5073128;28;20056;-48
2021/09/16 03:46:06;;;;;;;13.82;10.50;;;21.40;84.70;;;;;;5073085;28;20025;-48
2021/09/16 03:48:32;;;;;;;13.18;9.90;;;21.60;84.40;;;;;;5038145;28;20083;-49
2021/09/16 03:50:58;;;;;;;14.57;9.30;;;21.70;83.80;;;;;;5072819;28;20036;-48
2021/09/16 03:53:23;;;;;;;14.68;10.23;;;21.80;83.00;;;;;;5073052;28;20540;-48
2021/09/16 03:55:49;;;;;;;17.88;9.85;;;21.80;82.90;;;;;;5038070;28;20037;-48
2021/09/16 03:58:15;;;;;;;16.73;9.82;;;21.90;83.10;;;;;;5075154;28;20069;-48
2021/09/16 04:00:41;;;;;;;18.25;9.95;;;21.90;82.50;;;;;;5076599;28;20032;-48
2021/09/16 04:03:12;;;;;;;15.68;10.35;;;22.00;82.70;;;;;;5076548;28;20464;-50
2021/09/16 04:05:40;;;;;;;12.90;10.18;;;22.10;83.80;;;;;;5061864;28;20089;-49
2021/09/16 04:08:06;;;;;;;17.85;11.23;;;22.10;84.70;;;;;;5064304;28;20036;-50
2021/09/16 04:10:33;;;;;;;15.45;11.32;;;22.10;84.70;;;;;;5057956;28;20043;-50
2021/09/16 04:12:58;;;;;;;14.90;11.85;;;22.10;85.30;;;;;;5041134;28;20085;-49
2021/09/16 04:15:25;;;;;;;16.20;11.05;;;22.10;86.20;;;;;;5021193;28;20447;-50
2021/09/16 04:17:51;;;;;;;16.45;10.65;;;22.10;83.90;;;;;;5055218;28;20118;-50
2021/09/16 04:20:17;;;;;;;14.50;10.02;;;22.10;83.30;;;;;;5025751;28;20080;-49
2021/09/16 04:22:42;;;;;;;16.58;11.05;;;22.10;83.40;;;;;;5055655;28;20059;-50
2021/09/16 04:25:08;;;;;;;24.48;11.40;;;22.20;84.80;;;;;;5055555;28;20029;-50
2021/09/16 04:27:34;;;;;;;19.55;11.30;;;22.20;86.50;;;;;;5028530;28;20032;-49
2021/09/16 04:30:00;;;;;;;23.60;11.23;;;22.10;85.90;;;;;;5037316;28;20041;-50
2021/09/16 04:32:26;;;;;;;23.67;12.55;;;22.00;86.00;;;;;;5055702;28;20456;-50
2021/09/16 04:34:51;;;;;;;21.40;12.68;;;22.10;87.10;;;;;;5055928;28;20029;-49
2021/09/16 04:37:18;;;;;;;19.00;11.20;;;22.00;88.70;;;;;;5056037;28;20079;-49
2021/09/16 04:39:44;;;;;;;19.45;11.10;;;21.90;87.50;;;;;;5056299;28;20455;-50
2021/09/16 04:42:10;;;;;;;19.15;11.70;;;22.00;87.20;;;;;;5055780;28;20032;-49
2021/09/16 04:44:35;;;;;;;12.60;10.52;;;21.90;87.90;;;;;;4988389;28;20086;-49
2021/09/16 04:47:01;;;;;;;22.85;11.10;;;21.90;86.80;;;;;;5055964;28;20460;-50
2021/09/16 04:49:27;;;;;;;15.85;12.00;;;22.00;88.00;;;;;;5004351;28;20124;-50
2021/09/16 04:51:53;;;;;;;16.52;11.43;;;22.10;89.60;;;;;;5020614;28;20029;-50
2021/09/16 04:54:19;;;;;;;17.55;11.25;;;22.10;90.30;;;;;;5055612;28;20037;-50
2021/09/16 04:56:45;;;;;;;14.45;11.90;;;22.00;88.60;;;;;;5055537;28;20044;-50
2021/09/16 04:59:11;;;;;;;17.15;12.75;;;22.10;90.30;;;;;;5055560;28;20033;-49
2021/09/16 05:01:37;;;;;;;15.93;12.60;;;22.20;91.10;;;;;;5057390;28;20078;-50
2021/09/16 05:04:03;;;;;;;20.67;13.30;;;22.20;91.60;;;;;;5067388;28;20021;-50
2021/09/16 05:06:29;;;;;;;21.73;13.02;;;22.20;91.60;;;;;;5062076;28;20036;-50
2021/09/16 05:08:54;;;;;;;20.02;13.02;;;22.30;91.30;;;;;;5023521;28;20124;-50
2021/09/16 05:11:20;;;;;;;22.00;13.10;;;22.30;92.10;;;;;;5065661;28;20112;-50
2021/09/16 05:13:46;;;;;;;19.45;11.75;;;22.40;91.40;;;;;;5067616;28;20025;-50
2021/09/16 05:16:12;;;;;;;18.00;10.80;;;22.30;90.80;;;;;;5019962;28;20512;-50
2021/09/16 05:18:37;;;;;;;33.40;12.27;;;22.40;89.70;;;;;;5019816;28;20546;-50
2021/09/16 05:21:03;;;;;;;22.98;13.27;;;22.40;90.40;;;;;;5054443;28;20465;-50
2021/09/16 05:23:29;;;;;;;19.70;12.15;;;22.40;90.70;;;;;;5064896;28;20353;-50
2021/09/16 05:25:55;;;;;;;17.23;11.70;;;22.50;90.70;;;;;;5065373;28;20020;-50
2021/09/16 05:28:21;;;;;;;14.35;10.43;;;22.40;90.40;;;;;;5064666;28;20499;-49
2021/09/16 05:30:46;;;;;;;19.85;12.15;;;22.50;89.40;;;;;;5019596;28;20041;-50
2021/09/16 05:33:12;;;;;;;21.70;13.10;;;22.60;91.40;;;;;;5055649;28;20025;-50
2021/09/16 05:35:39;;;;;;;26.33;13.70;;;22.70;92.00;;;;;;5061840;28;20028;-50
2021/09/16 05:38:06;;;;;;;20.08;13.30;;;22.60;93.10;;;;;;5054031;28;20094;-50
2021/09/16 05:40:32;;;;;;;23.20;13.18;;;22.60;92.50;;;;;;5053970;28;20040;-50
2021/09/16 05:42:58;;;;;;;15.23;11.82;;;22.70;92.60;;;;;;5054708;28;20502;-50
2021/09/16 05:45:24;;;;;;;17.88;12.35;;;22.80;92.00;;;;;;5069722;28;20456;-49
2021/09/16 05:47:50;;;;;;;18.05;13.10;;;22.80;91.20;;;;;;5031770;28;20029;-50
2021/09/16 05:50:16;;;;;;;16.63;14.57;;;22.90;92.90;;;;;;5056840;28;20099;-50
2021/09/16 05:52:41;;;;;;;18.45;15.32;;;22.70;94.80;;;;;;5056396;28;20024;-50
2021/09/16 05:55:09;;;;;;;18.60;15.43;;;22.50;94.80;;;;;;5028049;28;20492;-49
2021/09/16 05:57:35;;;;;;;16.48;14.82;;;22.40;95.30;;;;;;5019560;28;20106;-50
2021/09/16 06:00:04;;;;;;;17.75;14.90;;;22.40;94.90;;;;;;5066909;28;20063;-49
2021/09/16 06:02:29;;;;;;;17.92;14.93;;;22.40;95.20;;;;;;5015296;28;20033;-50
2021/09/16 06:04:55;;;;;;;18.20;15.57;;;22.30;94.30;;;;;;5064741;28;20025;-51
2021/09/16 06:07:21;;;;;;;24.75;22.23;;;22.10;93.40;;;;;;5071980;28;20029;-50
2021/09/16 06:09:47;;;;;;;17.67;15.85;;;22.00;93.90;;;;;;5066136;28;20036;-50
2021/09/16 06:12:12;;;;;;;14.45;12.93;;;22.00;94.30;;;;;;5065969;28;20025;-52
2021/09/16 06:14:38;;;;;;;11.80;10.52;;;22.10;93.30;;;;;;5030546;28;20044;-50
2021/09/16 06:17:04;;;;;;;13.95;10.90;;;22.10;92.90;;;;;;5057839;28;20028;-50
2021/09/16 06:19:30;;;;;;;10.70;9.63;;;22.10;92.90;;;;;;5027986;28;20044;-49
2021/09/16 06:21:56;;;;;;;12.32;11.13;;;22.20;92.10;;;;;;5059501;28;20122;-50
2021/09/16 06:24:22;;;;;;;15.77;9.95;;;22.30;93.10;;;;;;5010703;28;20091;-50
2021/09/16 06:26:47;;;;;;;13.73;9.43;;;22.30;92.50;;;;;;5062975;28;20021;-49
2021/09/16 06:29:13;;;;;;;10.77;9.13;;;22.40;92.10;;;;;;5061943;28;20445;-50
2021/09/16 06:31:39;;;;;;;11.45;9.68;;;22.50;92.00;;;;;;5068241;28;20025;-49
2021/09/16 06:34:05;;;;;;;33.53;27.95;;;22.60;92.60;;;;;;5067935;28;20040;-50
2021/09/16 06:36:30;;;;;;;13.90;12.32;;;22.70;92.40;;;;;;5067171;28;20031;-49
2021/09/16 06:38:56;;;;;;;12.07;10.88;;;22.80;92.50;;;;;;4976724;28;20091;-50
2021/09/16 06:41:22;;;;;;;21.27;18.73;;;22.90;92.60;;;;;;5064647;28;20025;-49
2021/09/16 06:43:48;;;;;;;76.55;66.80;;;22.90;92.10;;;;;;5068023;28;20431;-50
2021/09/16 06:46:14;;;;;;;54.67;43.45;;;22.90;92.40;;;;;;5062321;28;20025;-50
2021/09/16 06:48:40;;;;;;;24.23;17.38;;;22.90;92.70;;;;;;5064079;28;20036;-49
2021/09/16 06:51:05;;;;;;;16.80;13.88;;;23.00;92.20;;;;;;5064562;28;20029;-50
2021/09/16 06:53:31;;;;;;;18.23;14.32;;;23.00;92.20;;;;;;5060380;28;20384;-50
2021/09/16 06:55:57;;;;;;;40.88;36.78;;;23.00;92.20;;;;;;5059875;28;20056;-50
2021/09/16 06:58:23;;;;;;;15.93;14.13;;;23.10;92.20;;;;;;5034641;28;20041;-50
2021/09/16 07:00:48;;;;;;;61.40;54.42;;;23.20;91.20;;;;;;5065583;28;20419;-52
2021/09/16 07:03:14;;;;;;;53.30;46.10;;;23.30;90.60;;;;;;5056295;28;20029;-51
2021/09/16 07:05:40;;;;;;;16.67;11.45;;;23.40;91.00;;;;;;5063388;28;20024;-52
2021/09/16 07:08:06;;;;;;;13.90;10.00;;;23.50;91.20;;;;;;5022879;28;20044;-51
2021/09/16 07:10:32;;;;;;;11.18;8.43;;;23.60;90.90;;;;;;5012677;28;20048;-51
2021/09/16 07:12:57;;;;;;;14.90;9.35;;;23.80;90.40;;;;;;5060768;28;20099;-51
2021/09/16 07:15:23;;;;;;;24.70;16.75;;;23.90;90.20;;;;;;5056760;28;20029;-51
2021/09/16 07:17:49;;;;;;;56.45;43.08;;;24.10;89.90;;;;;;5065319;28;20032;-52
2021/09/16 07:20:14;;;;;;;47.47;35.17;;;24.20;89.20;;;;;;5062451;28;20035;-52
2021/09/16 07:22:41;;;;;;;41.20;26.58;;;;;;;;;;4979889;28;20103;-52
2021/09/16 07:25:08;;;;;;;35.97;24.08;;;24.60;86.40;;;;;;5045071;28;20021;-51
2021/09/16 07:27:35;;;;;;;30.42;21.63;;;24.80;86.80;;;;;;4981230;28;20055;-49
2021/09/16 07:30:00;;;;;;;27.58;17.70;;;24.90;85.40;;;;;;5022074;28;20041;-49
2021/09/16 07:32:26;;;;;;;26.73;17.98;;;25.00;85.00;;;;;;5038413;28;20041;-50
2021/09/16 07:34:52;;;;;;;21.27;15.45;;;25.10;84.40;;;;;;5050711;28;20028;-50
2021/09/16 07:37:18;;;;;;;27.10;18.52;;;25.20;83.90;;;;;;5023166;28;20037;-49
2021/09/16 07:39:44;;;;;;;114.72;82.30;;;25.20;84.50;;;;;;5044121;28;20030;-49
2021/09/16 07:42:09;;;;;;;87.30;67.57;;;25.20;81.90;;;;;;5046965;28;20104;-51
2021/09/16 07:44:35;;;;;;;40.65;29.50;;;25.30;82.50;;;;;;5046166;28;20032;-50
2021/09/16 07:47:01;;;;;;;65.82;50.33;;;25.40;81.10;;;;;;5045549;28;20032;-50
2021/09/16 07:49:27;;;;;;;117.45;86.85;;;25.50;81.90;;;;;;5038923;28;20042;-50
2021/09/16 07:51:53;;;;;;;51.65;38.10;;;25.70;80.20;;;;;;5048441;28;20083;-50
2021/09/16 07:54:19;;;;;;;38.10;28.83;;;25.70;80.90;;;;;;5044167;28;20025;-50
2021/09/16 07:56:44;;;;;;;36.53;25.10;;;25.90;80.40;;;;;;5023772;28;20083;-50
2021/09/16 07:59:10;;;;;;;35.70;24.30;;;26.10;79.30;;;;;;5036449;28;20096;-50
2021/09/16 08:01:36;;;;;;;29.80;21.75;;;26.30;79.10;;;;;;5045806;28;20100;-50
2021/09/16 08:04:03;;;;;;;33.20;22.73;;;26.50;79.50;;;;;;5049079;28;20057;-50
2021/09/16 08:06:30;;;;;;;25.20;16.17;;;26.80;80.30;;;;;;4977085;28;20034;-51
2021/09/16 08:08:56;;;;;;;20.63;14.52;;;27.00;78.30;;;;;;5046319;28;20029;-51
2021/09/16 08:11:22;;;;;;;20.30;12.48;;;27.30;77.50;;;;;;4993166;28;20044;-50
2021/09/16 08:13:47;;;;;;;16.70;11.00;;;27.40;75.10;;;;;;5043777;28;20040;-51
2021/09/16 08:16:13;;;;;;;16.13;11.52;;;27.60;74.40;;;;;;5049454;28;20377;-50
2021/09/16 08:18:39;;;;;;;10.40;8.02;;;27.90;74.30;;;;;;5050961;28;20033;-50
2021/09/16 08:21:05;;;;;;;16.05;7.25;;;28.10;71.20;;;;;;5047653;28;20426;-51
2021/09/16 08:23:31;;;;;;;14.43;9.00;;;28.20;70.70;;;;;;5023705;28;20155;-52
2021/09/16 08:25:57;;;;;;;11.70;7.60;;;28.30;70.60;;;;;;5042582;28;20021;-51
2021/09/16 08:28:23;;;;;;;14.68;10.75;;;28.20;68.90;;;;;;5038217;28;20029;-51
2021/09/16 08:30:49;;;;;;;16.98;10.82;;;28.30;69.90;;;;;;5047837;28;20021;-52
2021/09/16 08:33:15;;;;;;;18.88;11.73;;;28.30;69.80;;;;;;5041896;28;20513;-50
2021/09/16 08:35:41;;;;;;;15.48;11.82;;;28.20;70.90;;;;;;5039976;28;20045;-51
2021/09/16 08:38:06;;;;;;;15.52;10.25;;;28.30;71.20;;;;;;5049358;28;20524;-51
2021/09/16 08:40:32;;;;;;;13.35;9.43;;;28.30;71.20;;;;;;5050774;28;20390;-51
2021/09/16 08:43:00;;;;;;;15.75;10.07;;;28.40;70.10;;;;;;5050311;28;20071;-50
2021/09/16 08:45:26;;;;;;;13.73;9.07;;;28.40;72.30;;;;;;5045263;28;20025;-51
2021/09/16 08:47:53;;;;;;;14.60;8.77;;;28.50;70.80;;;;;;5033219;28;20088;-50
2021/09/16 08:50:23;;;;;;;12.80;8.23;;;28.60;69.00;;;;;;5047811;28;20025;-51
2021/09/16 08:52:49;;;;;;;13.27;8.68;;;;;;;;;;5025926;28;20120;-51
2021/09/16 08:55:17;;;;;;;8.25;6.50;;;28.80;96.20;;;;;;5045300;28;20029;-50
2021/09/16 08:57:46;;;;;;;10.77;6.53;;;28.50;96.40;;;;;;5041244;28;20493;-51
2021/09/16 09:00:16;;;;;;;8.88;5.85;;;28.50;96.70;;;;;;5038231;28;20374;-52
2021/09/16 09:02:47;;;;;;;9.15;5.75;;;28.60;96.70;;;;;;5030468;28;20029;-51
2021/09/16 09:05:13;;;;;;;14.30;6.38;;;28.80;96.90;;;;;;5047391;28;20480;-50
2021/09/16 09:08:01;;;;;;;8.00;5.85;;;28.80;96.90;;;;;;5043802;28;20113;-52
2021/09/16 09:10:49;;;;;;;9.82;5.10;;;;;;;;;;5041043;28;20032;-51
2021/09/16 09:13:15;;;;;;;10.65;5.00;;;;;;;;;;5043701;28;20029;-52
2021/09/16 09:15:42;;;;;;;12.63;6.10;;;;;;;;;;5045282;28;20021;-51
2021/09/16 09:18:19;;;;;;;11.75;5.53;;;29.90;88.10;;;;;;5021894;28;20045;-51
2021/09/16 09:21:04;;;;;;;10.57;5.40;;;30.00;88.80;;;;;;5042269;28;20057;-52
2021/09/16 09:23:38;;;;;;;13.73;8.70;;;30.00;86.40;;;;;;5062956;28;20053;-53
2021/09/16 09:26:26;;;;;;;11.13;6.30;;;30.20;86.20;;;;;;5011443;28;20108;-52
2021/09/16 09:28:54;;;;;;;9.88;5.07;;;;;;;;;;5058175;28;20100;-51
2021/09/16 09:31:22;;;;;;;7.88;4.13;;;;;;;;;;5061797;28;20423;-51
2021/09/16 09:33:48;;;;;;;7.60;4.13;;;;;;;;;;5062477;28;20033;-51
2021/09/16 09:36:18;;;;;;;6.22;4.28;;;31.80;92.00;;;;;;5063332;28;20021;-52
2021/09/16 09:38:48;;;;;;;8.32;4.40;;;;;;;;;;5055660;28;20037;-52
2021/09/16 09:41:21;;;;;;;14.48;4.95;;;;;;;;;;5061333;28;20025;-52
2021/09/16 09:43:48;;;;;;;10.48;5.05;;;;;;;;;;5063064;28;20025;-52
2021/09/16 09:46:15;;;;;;;9.43;4.20;;;;;;;;;;5060729;28;20082;-51
2021/09/16 09:48:42;;;;;;;9.20;5.03;;;;;;;;;;5064726;28;20063;-51
2021/09/16 09:51:12;;;;;;;10.63;5.00;;;;;;;;;;5065097;28;20035;-51
2021/09/16 09:53:39;;;;;;;7.07;4.50;;;;;;;;;;5024095;28;20128;-51
2021/09/16 09:56:12;;;;;;;11.45;6.35;;;;;;;;;;5006637;28;20034;-51
2021/09/16 09:58:38;;;;;;;8.95;5.88;;;33.90;77.00;;;;;;4993470;28;20548;-52
2021/09/16 10:01:30;;;;;;;15.18;4.65;;;34.00;78.50;;;;;;5007054;28;20033;-51
2021/09/16 10:03:56;;;;;;;16.65;5.05;;;33.70;78.50;;;;;;5024944;28;20040;-51
2021/09/16 10:06:32;;;;;;;18.13;5.40;;;;;;;;;;4977371;28;20044;-51
2021/09/16 10:09:11;;;;;;;10.65;5.00;;;;;;;;;;5020297;28;20466;-50
2021/09/16 10:11:46;;;;;;;13.10;4.88;;;35.00;55.40;;;;;;5018097;28;20034;-52
2021/09/16 10:14:14;;;;;;;19.52;7.57;;;35.40;54.00;;;;;;4996966;28;20046;-50
2021/09/16 10:16:40;;;;;;;16.52;4.38;;;35.50;54.30;;;;;;5025496;28;20056;-51
2021/09/16 10:19:06;;;;;;;17.75;4.45;;;35.10;54.80;;;;;;5020642;28;20472;-51
2021/09/16 10:21:33;;;;;;;16.25;4.78;;;35.60;54.40;;;;;;4963017;28;20037;-50
2021/09/16 10:24:00;;;;;;;16.02;5.05;;;35.10;54.00;;;;;;4989154;28;20040;-50
2021/09/16 10:26:42;;;;;;;24.63;6.53;;;35.10;54.30;;;;;;5058497;28;20383;-52
2021/09/16 10:29:29;;;;;;;18.15;5.60;;;35.20;55.50;;;;;;5063714;28;20028;-51
2021/09/16 10:32:07;;;;;;;19.58;4.57;;;35.90;54.50;;;;;;5025291;28;20128;-50
2021/09/16 10:34:47;;;;;;;22.00;5.50;;;;;;;;;;5064276;28;20123;-52
2021/09/16 10:37:18;;;;;;;18.05;5.35;;;36.50;53.10;;;;;;5065605;28;20081;-53
2021/09/16 10:39:46;;;;;;;18.02;5.47;;;36.70;53.10;;;;;;5045567;28;20060;-51
2021/09/16 10:42:12;;;;;;;18.17;5.45;;;;;;;;;;5059103;28;20032;-50
2021/09/16 10:44:39;;;;;;;12.43;5.13;;;36.90;91.50;;;;;;5044509;28;20032;-51
2021/09/16 10:47:38;;;;;;;18.60;4.60;;;;;;;;;;5066854;28;20484;-50
2021/09/16 10:50:20;;;;;;;23.60;5.30;;;35.60;52.80;;;;;;4991857;28;20129;-52
2021/09/16 10:52:46;;;;;;;20.85;5.60;;;35.90;54.20;;;;;;5000580;28;20506;-53
2021/09/16 10:55:11;;;;;;;21.75;5.10;;;36.00;54.40;;;;;;4961924;28;20067;-50
2021/09/16 10:57:38;;;;;;;18.30;4.80;;;36.30;54.20;;;;;;4962658;28;20053;-51
2021/09/16 11:00:06;;;;;;;20.58;6.13;;;35.90;54.00;;;;;;4994574;28;20505;-52
2021/09/16 11:02:45;;;;;;;20.98;5.47;;;35.80;54.30;;;;;;5001489;28;20033;-52
2021/09/16 11:05:15;;;;;;;22.30;5.80;;;36.10;53.80;;;;;;5002485;28;20037;-51
2021/09/16 11:07:42;;;;;;;27.45;7.15;;;36.50;53.80;;;;;;4950312;28;20563;-51
2021/09/16 11:10:14;;;;;;;17.85;4.97;;;36.10;53.90;;;;;;4996825;28;20030;-50
2021/09/16 11:12:44;;;;;;;19.30;5.25;;;36.20;54.10;;;;;;4991479;28;20034;-50
2021/09/16 11:15:11;;;;;;;20.98;4.47;;;;;;;;;;4993583;28;20190;-51
2021/09/16 11:17:38;;;;;;;18.60;4.05;;;;;;;;;;4996900;28;20042;-51
2021/09/16 11:20:05;;;;;;;20.17;5.00;;;;;;;;;;4990999;28;20038;-52
2021/09/16 11:22:31;;;;;;;22.85;6.00;;;34.20;55.40;;;;;;4999218;28;20042;-49
2021/09/16 11:24:58;;;;;;;19.17;4.72;;;34.30;56.30;;;;;;5008117;28;20044;-50
2021/09/16 11:27:33;;;;;;;27.83;6.15;;;34.10;57.00;;;;;;5048372;28;20025;-49
2021/09/16 11:30:00;;;;;;;23.05;6.05;;;33.80;57.30;;;;;;5038234;28;20504;-50
2021/09/16 11:32:30;;;;;;;21.17;4.90;;;;;;;;;;5046055;28;20053;-51
2021/09/16 11:34:59;;;;;;;25.55;5.43;;;33.40;79.60;;;;;;5045219;28;20118;-50
2021/09/16 11:37:32;;;;;;;19.73;4.90;;;;;;;;;;5051742;28;20025;-52
2021/09/16 11:39:58;;;;;;;14.93;4.88;;;;;;;;;;5036163;28;20040;-51
2021/09/16 11:42:24;;;;;;;21.10;5.55;;;;;;;;;;5040683;28;20091;-52
2021/09/16 11:44:59;;;;;;;21.15;5.25;;;33.00;58.30;;;;;;5042507;28;20072;-49
2021/09/16 11:47:26;;;;;;;24.48;5.82;;;33.00;57.80;;;;;;5016275;28;20045;-50
2021/09/16 11:49:52;;;;;;;26.60;5.68;;;33.00;57.90;;;;;;5043847;28;20362;-49
2021/09/16 11:52:20;;;;;;;22.80;5.70;;;33.20;58.00;;;;;;5041067;28;20044;-51
2021/09/16 11:55:14;;;;;;;17.45;5.15;;;33.40;57.80;;;;;;5043100;28;20076;-49
2021/09/16 11:58:11;;;;;;;21.35;6.53;;;34.00;57.40;;;;;;5008250;28;20484;-51
2021/09/16 12:00:40;;;;;;;21.63;5.30;;;34.20;57.10;;;;;;5037829;28;20025;-49
2021/09/16 12:03:08;;;;;;;16.65;5.80;;;34.20;57.10;;;;;;5026007;28;20060;-50
2021/09/16 12:05:42;;;;;;;22.73;5.57;;;34.10;56.70;;;;;;5041902;28;20026;-50
2021/09/16 12:08:16;;;;;;;24.23;7.20;;;34.00;57.40;;;;;;5024765;28;20045;-50
2021/09/16 12:10:56;;;;;;;18.83;5.53;;;34.20;57.60;;;;;;5045892;28;20031;-49
2021/09/16 12:13:25;;;;;;;17.15;5.70;;;34.10;56.50;;;;;;5024726;28;20045;-49
2021/09/16 12:16:01;;;;;;;21.52;6.40;;;34.20;56.80;;;;;;5042503;28;20033;-51
2021/09/16 12:18:27;;;;;;;17.63;5.90;;;34.30;57.10;;;;;;5045232;28;20481;-50
2021/09/16 12:20:53;;;;;;;17.48;5.25;;;34.20;56.80;;;;;;5016005;28;20076;-51
2021/09/16 12:23:21;;;;;;;17.38;5.30;;;33.70;56.80;;;;;;5063976;28;20193;-49
2021/09/16 12:25:48;;;;;;;21.90;6.30;;;33.40;57.10;;;;;;5065651;28;20074;-51
2021/09/16 12:28:14;;;;;;;17.48;5.03;;;33.10;57.00;;;;;;5064039;28;20029;-49
2021/09/16 12:30:40;;;;;;;27.08;6.15;;;33.10;58.10;;;;;;5067770;28;20044;-51
2021/09/16 12:33:28;;;;;;;23.58;5.90;;;33.00;57.90;;;;;;5069985;28;20028;-51
2021/09/16 12:36:10;;;;;;;17.67;5.78;;;32.70;58.00;;;;;;5014020;28;20033;-52
2021/09/16 12:38:41;;;;;;;19.15;5.70;;;32.40;58.10;;;;;;5036164;28;20102;-49
2021/09/16 12:41:42;;;;;;;23.02;6.82;;;32.10;58.70;;;;;;5067099;28;20032;-49
2021/09/16 12:44:14;;;;;;;28.42;5.75;;;32.00;58.60;;;;;;4980183;28;20042;-48